Home > Products > Valid Products > TAF

000
FTUS41 KALY 042102 AAD
TAFGFL
TAF AMD
KGFL 042102Z 0421/0518 07005KT P6SM -RA FEW009 SCT030 OVC040
      TEMPO 0422/0424 2SM -RA BKN008 OVC015
     FM050400 04005KT 3SM -DZ BR SCT005 OVC010
     FM051200 03006KT P6SM VCSH SCT008 OVC015
     FM051700 04007KT P6SM SCT015 OVC030=



000
FTUS41 KALY 042049 AAC
TAFGFL
TAF AMD
KGFL 042049Z 0421/0518 05005KT 5SM -RA BR SCT007 BKN030 OVC045
      TEMPO 0422/0424 2SM -RA BKN008 OVC015
     FM050400 04005KT 3SM -DZ BR SCT005 OVC010
     FM051200 03006KT P6SM VCSH SCT008 OVC015
     FM051700 04007KT P6SM SCT015 OVC030=



000
FTUS41 KALY 042042 AAB
TAFGFL
TAF AMD
KGFL 042042Z 0421/0518 04004KT 5SM -RA BR SCT006 BKN009 OVC020
      TEMPO 0422/0424 2SM -RA BKN008 OVC015
     FM050400 04005KT 3SM -DZ BR SCT005 OVC010
     FM051200 03006KT P6SM VCSH SCT008 OVC015
     FM051700 04007KT P6SM SCT015 OVC030=



000
FTUS41 KALY 042040 AAA
TAFGFL
TAF AMD
KGFL 042040Z 0421/0518 06005KT P6SM VCSH SCT008 OVC015
      TEMPO 0422/0424 2SM -RA BKN008 OVC015
     FM050400 04005KT 3SM -DZ BR SCT005 OVC010
     FM051200 03006KT P6SM VCSH SCT008 OVC015
     FM051700 04007KT P6SM SCT015 OVC030=



000
FTUS41 KALY 041738
TAFGFL
TAF
KGFL 041738Z 0418/0518 06005KT P6SM VCSH OVC025
      TEMPO 0418/0422 3SM -RA SCT008 OVC015
     FM050400 04005KT 3SM -DZ BR SCT005 OVC010
     FM051200 03006KT P6SM VCSH SCT008 OVC015
     FM051700 04007KT P6SM SCT015 OVC030=



000
FTUS41 KALY 041738
TAFALB
TAF
KALB 041738Z 0418/0518 12006KT 6SM -RA SCT008 OVC015
      TEMPO 0418/0422 3SM -RA BR BKN008 OVC015
     FM042300 07005KT P6SM VCSH SCT010 OVC020
     FM050400 03005KT 3SM -DZ BR SCT005 OVC010
     FM051300 01007KT P6SM OVC025
     FM051600 02007KT P6SM OVC035=



000
FTUS41 KALY 041738
TAFALB
TAF
KALB 041738Z 0418/0518 12006KT 6SM -RA SCT008 OVC015
      TEMPO 0418/0422 3SM -RA BR BKN008 OVC015
     FM042300 07005KT P6SM VCSH SCT010 OVC020
     FM050400 03005KT 3SM -DZ BR SCT005 OVC010
     FM051300 01007KT P6SM OVC025
     FM051600 02007KT P6SM OVC035=



000
FTUS41 KALY 041738
TAFGFL
TAF
KGFL 041738Z 0418/0518 06005KT P6SM VCSH OVC025
      TEMPO 0418/0422 3SM -RA SCT008 OVC015
     FM050400 04005KT 3SM -DZ BR SCT005 OVC010
     FM051200 03006KT P6SM VCSH SCT008 OVC015
     FM051700 04007KT P6SM SCT015 OVC030=



000
FTUS41 KALY 041738
TAFPOU
TAF
KPOU 041738Z 0418/0518 05005KT P6SM VCSH OVC020
      TEMPO 0418/0422 3SM -RA BR OVC010
     FM042300 05006KT P6SM VCSH OVC015
     FM050600 03006KT 3SM -DZ BR SCT005 OVC010
     FM051200 02007KT P6SM SCT008 OVC015
     FM051600 02008KT P6SM SCT015 OVC030=



000
FTUS41 KALY 041738
TAFPOU
TAF
KPOU 041738Z 0418/0518 05005KT P6SM VCSH OVC020
      TEMPO 0418/0422 3SM -RA BR OVC010
     FM042300 05006KT P6SM VCSH OVC015
     FM050600 03006KT 3SM -DZ BR SCT005 OVC010
     FM051200 02007KT P6SM SCT008 OVC015
     FM051600 02008KT P6SM SCT015 OVC030=



000
FTUS41 KALY 041622 AAC
TAFPOU
TAF AMD
KPOU 041622Z 0416/0512 03005KT P6SM VCSH BKN025 OVC035
      TEMPO 0416/0420 5SM -RA BR BKN015 OVC025
     FM050000 VRB04KT 2SM -DZ BR SCT004 OVC008
     FM050400 35004KT 4SM BR VCSH OVC006=



000
FTUS41 KALY 041557 AAB
TAFGFL
TAF AMD
KGFL 041557Z 0416/0512 05004KT 6SM -RA BR BKN015 OVC035
      TEMPO 0417/0420 3SM -RA BR SCT008 OVC012
     FM042200 02005KT 4SM BR VCSH SCT005 OVC015
     FM050400 01004KT 2SM -DZ BR SCT004 OVC008=



000
FTUS41 KALY 041348 AAA
TAFGFL
TAF AMD
KGFL 041348Z 0414/0512 05004KT 6SM -DZ BR SCT003 OVC008
      TEMPO 0414/0416 2SM -RA BR BKN003 OVC008
     FM042200 02005KT 4SM BR VCSH SCT005 OVC015
     FM050400 01004KT 2SM -DZ BR SCT004 OVC008=



000
FTUS41 KALY 041347 AAB
TAFPOU
TAF AMD
KPOU 041347Z 0414/0512 12005KT 6SM -RA BR FEW035 OVC070
      TEMPO 0414/0416 3SM RA BR BKN015 OVC040
     FM042000 02006KT 5SM -RA BR SCT008 OVC015
     FM050000 VRB04KT 2SM -DZ BR SCT004 OVC008
     FM050400 35004KT 4SM BR VCSH OVC006=



000
FTUS41 KALY 041347 AAB
TAFPOU
TAF AMD
KPOU 041347Z 0414/0512 12005KT 6SM -RA BR FEW035 OVC070
      TEMPO 0414/0416 3SM RA BR BKN015 OVC040
     FM042000 02006KT 5SM -RA BR SCT008 OVC015
     FM050000 VRB04KT 2SM -DZ BR SCT004 OVC008
     FM050400 35004KT 4SM BR VCSH OVC006=



000
FTUS41 KALY 041311 AAA
TAFPOU
TAF AMD
KPOU 041311Z 0413/0512 12005KT 6SM -RA BR FEW035 OVC070
      TEMPO 0414/0416 3SM RA BR BKN025 OVC040
     FM042000 02006KT 5SM -RA BR SCT008 OVC015
     FM050000 VRB04KT 2SM -DZ BR SCT004 OVC008
     FM050400 35004KT 4SM BR VCSH OVC006=



000
FTUS41 KALY 041310 AAA
TAFALB
TAF AMD
KALB 041310Z 0413/0512 14007KT 6SM -RA BR FEW015 OVC028
      TEMPO 0413/0416 3SM RA BR BKN015 OVC025
     FM042100 01005KT 5SM BR VCSH SCT005 OVC012
     FM050300 01005KT 2SM -DZ BR BKN008 OVC015=



000
FTUS41 KALY 041123
TAFGFL
TAF
KGFL 041123Z 0412/0512 05004KT 2SM -DZ BR SCT004 OVC008
      TEMPO 0412/0416 1SM -RA BR BKN004 OVC008
     FM042200 02005KT 4SM BR VCSH SCT005 OVC015
     FM050400 01004KT 2SM -DZ BR SCT004 OVC008=



000
FTUS41 KALY 041123
TAFALB
TAF
KALB 041123Z 0412/0512 11004KT 6SM -DZ BR FEW008 OVC022
      TEMPO 0412/0413 4SM -DZ BR SCT008 OVC020
     FM041300 06004KT 3SM -RA BR SCT007 OVC015
     FM042100 01005KT 5SM BR VCSH SCT005 OVC012
     FM050300 01005KT 2SM -DZ BR BKN008 OVC015=



000
FTUS41 KALY 041123
TAFPOU
TAF
KPOU 041123Z 0412/0512 12005KT 4SM -RA BR FEW007 OVC025
      TEMPO 0414/0416 2SM RA BR BKN007 OVC015
     FM042000 02006KT 5SM -RA BR SCT008 OVC015
     FM050000 VRB04KT 2SM -DZ BR SCT004 OVC008
     FM050400 35004KT 4SM BR VCSH OVC006=



000
FTUS41 KALY 041123
TAFPOU
TAF
KPOU 041123Z 0412/0512 12005KT 4SM -RA BR FEW007 OVC025
      TEMPO 0414/0416 2SM RA BR BKN007 OVC015
     FM042000 02006KT 5SM -RA BR SCT008 OVC015
     FM050000 VRB04KT 2SM -DZ BR SCT004 OVC008
     FM050400 35004KT 4SM BR VCSH OVC006=



000
FTUS41 KALY 041123
TAFALB
TAF
KALB 041123Z 0412/0512 11004KT 6SM -DZ BR FEW008 OVC022
      TEMPO 0412/0413 4SM -DZ BR SCT008 OVC020
     FM041300 06004KT 3SM -RA BR SCT007 OVC015
     FM042100 01005KT 5SM BR VCSH SCT005 OVC012
     FM050300 01005KT 2SM -DZ BR BKN008 OVC015=



000
FTUS41 KALY 041123
TAFGFL
TAF
KGFL 041123Z 0412/0512 05004KT 2SM -DZ BR SCT004 OVC008
      TEMPO 0412/0416 1SM -RA BR BKN004 OVC008
     FM042200 02005KT 4SM BR VCSH SCT005 OVC015
     FM050400 01004KT 2SM -DZ BR SCT004 OVC008=



000
FTUS41 KALY 041027 AAB
TAFGFL
TAF AMD
KGFL 041027Z 0410/0506 36005KT 2SM BR VCSH SCT007 OVC012
      TEMPO 0410/0412 1SM BR BKN007
     FM041200 VRB03KT 2SM -DZ BR OVC008
     FM041600 13005KT 6SM BR VCSH SCT008 OVC015
     FM042200 02004KT 3SM -RA BR OVC020=



000
FTUS41 KALY 040954 AAA
TAFPOU
TAF AMD
KPOU 040954Z 0410/0506 00000KT 6SM BR VCSH SCT007 OVC015
      TEMPO 0410/0412 3SM BR BKN007
     FM041200 15004KT 2SM -DZ BR SCT003 OVC008
     FM041800 04006KT 3SM -SHRA BR SCT008 OVC015
     FM042300 VRB04KT 2SM -DZ BR SCT004 OVC008=



000
FTUS41 KALY 040954 AAA
TAFPOU
TAF AMD
KPOU 040954Z 0410/0506 00000KT 6SM BR VCSH SCT007 OVC015
      TEMPO 0410/0412 3SM BR BKN007
     FM041200 15004KT 2SM -DZ BR SCT003 OVC008
     FM041800 04006KT 3SM -SHRA BR SCT008 OVC015
     FM042300 VRB04KT 2SM -DZ BR SCT004 OVC008=



000
FTUS41 KALY 040952 AAA
TAFGFL
TAF AMD
KGFL 040952Z 0410/0506 36005KT 4SM BR VCSH SCT006 OVC012
      TEMPO 0410/0411 2SM -SHRA BR BKN006
     FM041100 VRB03KT 2SM -DZ BR OVC008
     FM041600 13005KT 6SM BR VCSH SCT008 OVC015
     FM042200 02004KT 3SM -RA BR OVC020=



000
FTUS41 KALY 040952 AAA
TAFGFL
TAF AMD
KGFL 040952Z 0410/0506 36005KT 4SM BR VCSH SCT006 OVC012
      TEMPO 0410/0411 2SM -SHRA BR BKN006
     FM041100 VRB03KT 2SM -DZ BR OVC008
     FM041600 13005KT 6SM BR VCSH SCT008 OVC015
     FM042200 02004KT 3SM -RA BR OVC020=



000
FTUS41 KALY 040858 AAB
TAFALB
TAF AMD
KALB 040858Z 0409/0506 VRB03KT 4SM -DZ BR SCT007 OVC020
      TEMPO 0409/0411 2SM BR BKN007
     FM041100 VRB03KT 2SM -DZ BR SCT007 OVC015
     FM041400 15005KT 6SM BR VCSH SCT005 OVC012
     FM042000 13006KT 3SM -SHRA BR SCT008 OVC015=



000
FTUS41 KALY 040842 AAA
TAFALB
TAF AMD
KALB 040842Z 0409/0506 VRB03KT 1 1/2SM -DZ BR BKN006 OVC012
      TEMPO 0409/0411 1SM BR OVC006
     FM041100 VRB03KT 2SM -DZ BR OVC006
     FM041400 15005KT 6SM BR VCSH SCT005 OVC012
     FM042000 13006KT 3SM -SHRA BR SCT008 OVC015=



000
FTUS41 KALY 040558 CCA
TAFPOU
TAF COR
KPOU 040558Z 0406/0506 00000KT 6SM BR VCSH OVC009
      TEMPO 0406/0408 3SM BR BKN008
     FM040800 15004KT 2SM -DZ BR SCT003 OVC008
     FM041800 04006KT 3SM -SHRA BR SCT008 OVC015
     FM042300 VRB04KT 2SM -DZ BR SCT004 OVC008=



000
FTUS41 KALY 040558 CCA
TAFPOU
TAF COR
KPOU 040558Z 0406/0506 00000KT 6SM BR VCSH OVC009
      TEMPO 0406/0408 3SM BR BKN008
     FM040800 15004KT 2SM -DZ BR SCT003 OVC008
     FM041800 04006KT 3SM -SHRA BR SCT008 OVC015
     FM042300 VRB04KT 2SM -DZ BR SCT004 OVC008=



000
FTUS41 KALY 040539
TAFGFL
TAF
KGFL 040539Z 0406/0506 00000KT P6SM VCSH OVC030
      TEMPO 0407/0409 4SM -SHRA BR BKN015 OVC030
     FM040900 00000KT 5SM -SHRA BR SCT008 OVC015
     FM041100 VRB03KT 2SM -DZ BR OVC008
     FM041600 13005KT 6SM BR VCSH SCT008 OVC015
     FM042200 02004KT 3SM -RA BR OVC020=



000
FTUS41 KALY 040539
TAFALB
TAF
KALB 040539Z 0406/0506 00000KT 1 1/2SM -DZ BR BKN004 OVC012
      TEMPO 0406/0409 1SM BR OVC004
     FM040900 VRB03KT 2SM -DZ BR OVC005
     FM041400 15005KT 6SM BR VCSH SCT005 OVC012
     FM042000 13006KT 3SM -SHRA BR SCT008 OVC015=



000
FTUS41 KALY 040539
TAFALB
TAF
KALB 040539Z 0406/0506 00000KT 1 1/2SM -DZ BR BKN004 OVC012
      TEMPO 0406/0409 1SM BR OVC004
     FM040900 VRB03KT 2SM -DZ BR OVC005
     FM041400 15005KT 6SM BR VCSH SCT005 OVC012
     FM042000 13006KT 3SM -SHRA BR SCT008 OVC015=



000
FTUS41 KALY 040539
TAFPOU
TAF
KPOU 040539Z 0406/0506 00000KT 4SM BR VCSH OVC010
      TEMPO 0406/0408 3SM BR BKN008
     FM040800 15004KT 2SM -DZ BR SCT003 OVC008
     FM041800 04006KT 3SM -SHRA BR SCT008 OVC015
     FM042300 VRB04KT 2SM -DZ BR SCT004 OVC008=



000
FTUS41 KALY 040539
TAFGFL
TAF
KGFL 040539Z 0406/0506 00000KT P6SM VCSH OVC030
      TEMPO 0407/0409 4SM -SHRA BR BKN015 OVC030
     FM040900 00000KT 5SM -SHRA BR SCT008 OVC015
     FM041100 VRB03KT 2SM -DZ BR OVC008
     FM041600 13005KT 6SM BR VCSH SCT008 OVC015
     FM042200 02004KT 3SM -RA BR OVC020=



000
FTUS41 KALY 040539
TAFPOU
TAF
KPOU 040539Z 0406/0506 00000KT 4SM BR VCSH OVC010
      TEMPO 0406/0408 3SM BR BKN008
     FM040800 15004KT 2SM -DZ BR SCT003 OVC008
     FM041800 04006KT 3SM -SHRA BR SCT008 OVC015
     FM042300 VRB04KT 2SM -DZ BR SCT004 OVC008=



000
FTUS41 KALY 040516 AAD
TAFPOU
TAF AMD
KPOU 040516Z 0405/0424 00000KT 4SM BR VCSH OVC010
      TEMPO 0406/0408 3SM BR BKN008
     FM041300 VRB05KT 3SM -SHRA OVC015=



000
FTUS41 KALY 040515 AAD
TAFALB
TAF AMD
KALB 040515Z 0405/0424 VRB03KT 2SM -DZ BR SCT004 OVC012
      TEMPO 0405/0407 1SM BR BKN004
     FM040700 VRB02KT P6SM VCSH SCT008 OVC015
     FM041400 VRB05KT 3SM -SHRA OVC025=



000
FTUS41 KALY 040513 AAA
TAFGFL
TAF AMD
KGFL 040513Z 0405/0424 00000KT P6SM OVC030
     FM040900 VRB02KT P6SM VCSH OVC015
     FM041500 07005KT 3SM -SHRA OVC025=



000
FTUS41 KALY 040451 AAC
TAFALB
TAF AMD
KALB 040451Z 0405/0424 VRB03KT 3SM -DZ BR SCT005 OVC012
      TEMPO 0405/0407 2SM BR BKN005
     FM040700 VRB02KT P6SM VCSH SCT008 OVC015
     FM041400 VRB05KT 3SM -SHRA OVC025=



000
FTUS41 KALY 040411 AAC
TAFPOU
TAF AMD
KPOU 040411Z 0404/0424 00000KT 2SM BR VCSH OVC003
      TEMPO 0404/0408 3SM SCT003 BKN015
     FM041300 VRB05KT 3SM -SHRA OVC015=



000
FTUS41 KALY 040211 AAB
TAFPOU
TAF AMD
KPOU 040211Z 0402/0424 00000KT 5SM BR VCSH OVC004
     FM041300 VRB05KT 3SM -SHRA OVC015=



000
FTUS41 KALY 040211 AAB
TAFALB
TAF AMD
KALB 040211Z 0402/0424 18004KT P6SM VCSH BKN025 BKN035 OVC040
     FM040300 16003KT P6SM SCT015 OVC025
     FM040700 VRB02KT P6SM VCSH SCT008 OVC015
     FM041400 VRB05KT 3SM -SHRA OVC025=



000
FTUS41 KALY 040115 AAA
TAFPOU
TAF AMD
KPOU 040115Z 0401/0424 29003KT 5SM BR VCSH OVC004
     FM040200 VRB02KT P6SM VCSH OVC009
     FM041300 VRB05KT 3SM -SHRA OVC015=



000
FTUS41 KALY 040115 AAA
TAFALB
TAF AMD
KALB 040115Z 0401/0424 00000KT P6SM -RA VCSH SCT029 BKN040 OVC060
     FM040300 16003KT P6SM SCT015 OVC025
     FM040700 VRB02KT P6SM VCSH SCT008 OVC015
     FM041400 VRB05KT 3SM -SHRA OVC025=



000
FTUS41 KALY 032359 CCB
TAFALB
TAF COR
KALB 032359Z 0300/0324 00000KT 2SM -DZ BR FEW002 SCT024 OVC030
     FM030200 VRB05KT P6SM OVC015
     FM031200 VRB05KT P6SM OVC025
     FM032100 33004KT P6SM OVC035=



000
FTUS41 KALY 032359 CCB
TAFALB
TAF COR
KALB 032359Z 0300/0324 00000KT 2SM -DZ BR FEW002 SCT024 OVC030
     FM030200 VRB05KT P6SM OVC015
     FM031200 VRB05KT P6SM OVC025
     FM032100 33004KT P6SM OVC035=



000
FTUS41 KALY 032320
TAFPOU
TAF
KPOU 032320Z 0400/0424 00000KT 2SM BR VCSH OVC009
     FM040200 VRB02KT P6SM VCSH OVC009
     FM041300 VRB05KT 3SM -SHRA OVC015=



000
FTUS41 KALY 032320
TAFGFL
TAF
KGFL 032320Z 0400/0424 07005KT P6SM OVC100
     FM040400 VRB02KT P6SM SCT015 OVC025
     FM040900 VRB02KT P6SM VCSH OVC015
     FM041500 07005KT 3SM -SHRA OVC025=



000
FTUS41 KALY 032320
TAFPOU
TAF
KPOU 032320Z 0400/0424 00000KT 2SM BR VCSH OVC009
     FM040200 VRB02KT P6SM VCSH OVC009
     FM041300 VRB05KT 3SM -SHRA OVC015=



000
FTUS41 KALY 032320
TAFALB
TAF
KALB 032320Z 0400/0424 00000KT P6SM VCSH BKN040 OVC060
     FM040300 16003KT P6SM SCT015 OVC025
     FM040700 VRB02KT P6SM VCSH SCT008 OVC015
     FM041400 VRB05KT 3SM -SHRA OVC025=



000
FTUS41 KALY 032320
TAFGFL
TAF
KGFL 032320Z 0400/0424 07005KT P6SM OVC100
     FM040400 VRB02KT P6SM SCT015 OVC025
     FM040900 VRB02KT P6SM VCSH OVC015
     FM041500 07005KT 3SM -SHRA OVC025=



000
FTUS41 KALY 032320
TAFALB
TAF
KALB 032320Z 0400/0424 00000KT P6SM VCSH BKN040 OVC060
     FM040300 16003KT P6SM SCT015 OVC025
     FM040700 VRB02KT P6SM VCSH SCT008 OVC015
     FM041400 VRB05KT 3SM -SHRA OVC025=



000
FTUS41 KALY 032247 AAA
TAFPOU
TAF AMD
KPOU 032247Z 0323/0418 00000KT 3SM BR VCSH OVC009
     FM040100 VRB02KT P6SM VCSH OVC009
     FM041300 VRB05KT P6SM VCSH SCT009 OVC015=



000
FTUS41 KALY 031810 CCA
TAFALB
TAF COR
KALB 031810Z 0318/0418 04006KT P6SM SCT025 OVC035
      TEMPO 0318/0322 BKN025 OVC035
     FM040300 16003KT P6SM SCT015 OVC025
     FM040700 VRB02KT P6SM VCSH SCT008 OVC015
     FM041400 VRB05KT P6SM VCSH SCT015 OVC025=



000
FTUS41 KALY 031810 CCA
TAFALB
TAF COR
KALB 031810Z 0318/0418 04006KT P6SM SCT025 OVC035
      TEMPO 0318/0322 BKN025 OVC035
     FM040300 16003KT P6SM SCT015 OVC025
     FM040700 VRB02KT P6SM VCSH SCT008 OVC015
     FM041400 VRB05KT P6SM VCSH SCT015 OVC025=



000
FTUS41 KALY 031735
TAFPOU
TAF
KPOU 031735Z 0318/0418 01004KT P6SM VCSH SCT009 OVC015
      TEMPO 0318/0322 3SM -RA BR BKN009 OVC015
     FM040100 VRB02KT P6SM VCSH OVC009
     FM041300 VRB05KT P6SM VCSH SCT009 OVC015=



000
FTUS41 KALY 031735
TAFGFL
TAF
KGFL 031735Z 0318/0418 36006KT P6SM SCT025 OVC035
      TEMPO 0318/0322 OVC025
     FM040400 VRB02KT P6SM SCT015 OVC025
     FM040900 VRB02KT P6SM VCSH OVC015=



000
FTUS41 KALY 031735
TAFPOU
TAF
KPOU 031735Z 0318/0418 01004KT P6SM VCSH SCT009 OVC015
      TEMPO 0318/0322 3SM -RA BR BKN009 OVC015
     FM040100 VRB02KT P6SM VCSH OVC009
     FM041300 VRB05KT P6SM VCSH SCT009 OVC015=



000
FTUS41 KALY 031735
TAFGFL
TAF
KGFL 031735Z 0318/0418 36006KT P6SM SCT025 OVC035
      TEMPO 0318/0322 OVC025
     FM040400 VRB02KT P6SM SCT015 OVC025
     FM040900 VRB02KT P6SM VCSH OVC015=



000
FTUS41 KALY 031735
TAFALB
TAF
KALB 031735Z 0318/0418 04006KT P6SM SCT025 OVC035
     FM040300 16003KT P6SM SCT015 OVC025
     FM040700 VRB02KT P6SM VCSH SCT008 OVC015
     FM041400 VRB05KT P6SM VCSH SCT015 OVC025=



000
FTUS41 KALY 031735
TAFALB
TAF
KALB 031735Z 0318/0418 04006KT P6SM SCT025 OVC035
     FM040300 16003KT P6SM SCT015 OVC025
     FM040700 VRB02KT P6SM VCSH SCT008 OVC015
     FM041400 VRB05KT P6SM VCSH SCT015 OVC025=



000
FTUS41 KALY 031341 AAA
TAFGFL
TAF AMD
KGFL 031341Z 0314/0412 02004KT P6SM BKN015 OVC025
      TEMPO 0314/0318 SCT015 OVC025
     FM031800 VRB04KT P6SM SCT025 OVC035
     FM040400 VRB02KT P6SM SCT015 OVC025=



000
FTUS41 KALY 031339 AAA
TAFALB
TAF AMD
KALB 031339Z 0314/0412 01004KT P6SM VCSH SCT015 OVC035
      TEMPO 0314/0318 BKN015 OVC035
     FM031800 VRB03KT P6SM SCT025 OVC035
     FM040300 16003KT P6SM SCT015 OVC025
     FM040700 VRB02KT P6SM VCSH SCT008 OVC015=



000
FTUS41 KALY 031138
TAFPOU
TAF
KPOU 031138Z 0312/0412 02004KT 6SM -SHRA BR SCT012 OVC020
      TEMPO 0312/0315 3SM -SHRA BR BKN009 OVC015
     FM031600 01004KT P6SM VCSH OVC015
     FM040100 VRB02KT P6SM OVC009=



000
FTUS41 KALY 031138
TAFGFL
TAF
KGFL 031138Z 0312/0412 02004KT P6SM OVC015
     FM031500 02004KT P6SM SCT015 OVC025
     FM031800 VRB04KT P6SM SCT025 OVC035
     FM040400 VRB02KT P6SM SCT015 OVC025=



000
FTUS41 KALY 031138
TAFALB
TAF
KALB 031138Z 0312/0412 01004KT P6SM VCSH SCT010 OVC025
     FM031800 VRB03KT P6SM SCT025 OVC035
     FM040300 16003KT P6SM SCT015 OVC025
     FM040700 VRB02KT P6SM VCSH SCT008 OVC015=



000
FTUS41 KALY 030558 CCA
TAFALB
TAF COR
KALB 030558Z 0306/0406 34005KT 5SM -DZ BR SCT007 OVC012
      TEMPO 0306/0308 2SM -DZ BR OVC007
     FM030800 33004KT 3SM -DZ BR OVC007
      TEMPO 0308/0312 2SM -SHRA SCT007 OVC011
     FM031200 34004KT P6SM VCSH OVC015
     FM032100 34004KT P6SM SCT025 OVC035
     FM040200 16003KT P6SM VCSH OVC020=



000
FTUS41 KALY 030558 CCA
TAFALB
TAF COR
KALB 030558Z 0306/0406 34005KT 5SM -DZ BR SCT007 OVC012
      TEMPO 0306/0308 2SM -DZ BR OVC007
     FM030800 33004KT 3SM -DZ BR OVC007
      TEMPO 0308/0312 2SM -SHRA SCT007 OVC011
     FM031200 34004KT P6SM VCSH OVC015
     FM032100 34004KT P6SM SCT025 OVC035
     FM040200 16003KT P6SM VCSH OVC020=



000
FTUS41 KALY 030536
TAFGFL
TAF
KGFL 030536Z 0306/0406 03004KT P6SM OVC020
      TEMPO 0308/0311 2SM BR OVC009
     FM031200 03005KT P6SM OVC020
     FM031800 04004KT P6SM SCT025 OVC035
     FM040200 VRB02KT P6SM OVC025=



000
FTUS41 KALY 030536
TAFPOU
TAF
KPOU 030536Z 0306/0406 00000KT 4SM -RA BR SCT015 OVC035
      TEMPO 0306/0308 3SM RA BR BKN015 OVC025
     FM030800 VRB03KT 3SM -RA BR BKN015 OVC025
      TEMPO 0309/0312 2SM RA BR BKN009 OVC015
     FM031200 02004KT 3SM -RA BR SCT009 OVC015
     FM031600 01004KT P6SM VCSH OVC015
     FM040100 VRB02KT P6SM OVC009=



000
FTUS41 KALY 030536
TAFALB
TAF
KALB 030536Z 0306/0406 33005KT 3SM -DZ BR SCT009 OVC015
      TEMPO 0306/0308 2SM -DZ BR OVC009
     FM030800 33004KT 3SM -DZ BR OVC009
      TEMPO 0308/0312 2SM -SHRA SCT009 OVC012
     FM031200 34004KT P6SM VCSH OVC015
     FM032100 34004KT P6SM SCT025 OVC035
     FM040200 16003KT P6SM VCSH OVC020=



000
FTUS41 KALY 030405 AAC
TAFGFL
TAF AMD
KGFL 030405Z 0304/0324 03004KT P6SM SCT004 OVC020
      TEMPO 0304/0306 3SM BR BKN004 OVC020
     FM030600 VRB03KT P6SM OVC006
     FM031200 VRB05KT P6SM OVC020
     FM031800 10004KT P6SM OVC035=



000
FTUS41 KALY 030351 AAE
TAFALB
TAF AMD
KALB 030351Z 0304/0324 00000KT P6SM SCT015 BKN040 OVC200
      TEMPO 0304/0308 BKN015 OVC040
     FM031200 VRB05KT P6SM OVC025
     FM032100 33004KT P6SM OVC035=



000
FTUS41 KALY 030230 AAA
TAFPOU
TAF AMD
KPOU 030230Z 0303/0324 00000KT P6SM BKN023
     FM031000 VRB03KT 3SM -RA BR BKN009 OVC035
     FM032100 04003KT P6SM OVC035=



000
FTUS41 KALY 030230 AAD
TAFALB
TAF AMD
KALB 030230Z 0303/0324 00000KT P6SM FEW014 BKN040 OVC045
     FM031200 VRB05KT P6SM OVC025
     FM032100 33004KT P6SM OVC035=



000
FTUS41 KALY 030229 AAB
TAFGFL
TAF AMD
KGFL 030229Z 0302/0324 36005KT 2SM -RA BR BKN005 OVC010
     FM030600 VRB03KT P6SM OVC006
     FM031200 VRB05KT P6SM OVC020
     FM031800 10004KT P6SM OVC035=



000
FTUS41 KALY 030107 AAC
TAFALB
TAF AMD
KALB 030107Z 0301/0324 26004KT P6SM -DZ FEW007 SCT024 OVC030
     FM030200 VRB05KT P6SM OVC015
     FM031200 VRB05KT P6SM OVC025
     FM032100 33004KT P6SM OVC035=



000
FTUS41 KALY 030107 AAC
TAFALB
TAF AMD
KALB 030107Z 0301/0324 26004KT P6SM -DZ FEW007 SCT024 OVC030
     FM030200 VRB05KT P6SM OVC015
     FM031200 VRB05KT P6SM OVC025
     FM032100 33004KT P6SM OVC035=



000
FTUS41 KALY 030052 AAB
TAFALB
TAF AMD
KALB 030052Z 0301/0324 25005KT P6SM -DZ SCT007 BKN024 OVC030
     FM030200 VRB05KT P6SM OVC015
     FM031200 VRB05KT P6SM OVC025
     FM032100 33004KT P6SM OVC035=



000
FTUS41 KALY 030052 AAB
TAFALB
TAF AMD
KALB 030052Z 0301/0324 25005KT P6SM -DZ SCT007 BKN024 OVC030
     FM030200 VRB05KT P6SM OVC015
     FM031200 VRB05KT P6SM OVC025
     FM032100 33004KT P6SM OVC035=



000
FTUS41 KALY 030036 AAA
TAFGFL
TAF AMD
KGFL 030036Z 0301/0324 00000KT P6SM FEW006 BKN016 OVC023
     FM030600 VRB03KT P6SM OVC006
     FM031200 VRB05KT P6SM OVC020
     FM031800 10004KT P6SM OVC035=



000
FTUS41 KALY 030036 AAA
TAFALB
TAF AMD
KALB 030036Z 0301/0324 28006KT P6SM -DZ FEW005 BKN010 OVC022
     FM030200 VRB05KT P6SM OVC015
     FM031200 VRB05KT P6SM OVC025
     FM032100 33004KT P6SM OVC035=



000
FTUS41 KALY 022354 CCB
TAFGFL
TAF COR
KGFL 022354Z 0300/0324 00000KT P6SM SCT004 OVC025
     FM030600 VRB03KT P6SM OVC006
     FM031200 VRB05KT P6SM OVC020
     FM031800 10004KT P6SM OVC035=



000
FTUS41 KALY 022354 CCB
TAFGFL
TAF COR
KGFL 022354Z 0300/0324 00000KT P6SM SCT004 OVC025
     FM030600 VRB03KT P6SM OVC006
     FM031200 VRB05KT P6SM OVC020
     FM031800 10004KT P6SM OVC035=



000
FTUS41 KALY 022354 CCA
TAFALB
TAF COR
KALB 022354Z 0300/0324 00000KT 3SM -DZ BR FEW002 SCT024 OVC035
     FM030200 VRB05KT P6SM OVC015
     FM031200 VRB05KT P6SM OVC025
     FM032100 33004KT P6SM OVC035=



000
FTUS41 KALY 022354 CCA
TAFALB
TAF COR
KALB 022354Z 0300/0324 00000KT 3SM -DZ BR FEW002 SCT024 OVC035
     FM030200 VRB05KT P6SM OVC015
     FM031200 VRB05KT P6SM OVC025
     FM032100 33004KT P6SM OVC035=



000
FTUS41 KALY 022344 CCA
TAFGFL
TAF COR
KGFL 022344Z 0300/0324 00000KT 4SM -DZ BR FEW005 OVC035
      TEMPO 0302/0306 2SM -DZ BR OVC008
     FM030600 VRB03KT P6SM OVC006
     FM031200 VRB05KT P6SM OVC020
     FM031800 10004KT P6SM OVC035=



000
FTUS41 KALY 022344 CCA
TAFGFL
TAF COR
KGFL 022344Z 0300/0324 00000KT 4SM -DZ BR FEW005 OVC035
      TEMPO 0302/0306 2SM -DZ BR OVC008
     FM030600 VRB03KT P6SM OVC006
     FM031200 VRB05KT P6SM OVC020
     FM031800 10004KT P6SM OVC035=



000
FTUS41 KALY 022328
TAFPOU
TAF
KPOU 022328Z 0300/0324 25004KT P6SM SKC
     FM030200 VRB03KT P6SM OVC035
     FM031000 VRB03KT 3SM -RA BR BKN009 OVC035
     FM032100 04003KT P6SM OVC035=



000
FTUS41 KALY 022328
TAFALB
TAF
KALB 022328Z 0300/0324 00000KT P6SM BKN025 BKN035 OVC250
     FM030200 VRB05KT P6SM OVC015
     FM031200 VRB05KT P6SM OVC025
     FM032100 33004KT P6SM OVC035=



000
FTUS41 KALY 022328
TAFGFL
TAF
KGFL 022328Z 0300/0324 00000KT 4SM -DZ BR OVC015
      TEMPO 0302/0306 2SM -DZ BR OVC008
     FM030600 VRB03KT P6SM OVC006
     FM031200 VRB05KT P6SM OVC020
     FM031800 10004KT P6SM OVC035=



000
FTUS41 KALY 022328
TAFALB
TAF
KALB 022328Z 0300/0324 00000KT P6SM BKN025 BKN035 OVC250
     FM030200 VRB05KT P6SM OVC015
     FM031200 VRB05KT P6SM OVC025
     FM032100 33004KT P6SM OVC035=



000
FTUS41 KALY 022328
TAFPOU
TAF
KPOU 022328Z 0300/0324 25004KT P6SM SKC
     FM030200 VRB03KT P6SM OVC035
     FM031000 VRB03KT 3SM -RA BR BKN009 OVC035
     FM032100 04003KT P6SM OVC035=



000
FTUS41 KALY 022328
TAFGFL
TAF
KGFL 022328Z 0300/0324 00000KT 4SM -DZ BR OVC015
      TEMPO 0302/0306 2SM -DZ BR OVC008
     FM030600 VRB03KT P6SM OVC006
     FM031200 VRB05KT P6SM OVC020
     FM031800 10004KT P6SM OVC035=



000
FTUS41 KALY 022257 AAB
TAFPOU
TAF AMD
KPOU 022257Z 0223/0318 25004KT P6SM SKC
     FM030100 18002KT P6SM OVC010
     FM030200 00000KT P6SM SCT009 OVC035
     FM031000 VRB03KT 3SM -RA BR BKN009 OVC035=



000
FTUS41 KALY 022257 AAD
TAFALB
TAF AMD
KALB 022257Z 0223/0318 00000KT P6SM SCT027 BKN035 OVC260
     FM030200 VRB05KT P6SM OVC010
     FM031200 VRB05KT P6SM OVC020=



000
FTUS41 KALY 022257 AAE
TAFGFL
TAF AMD
KGFL 022257Z 0223/0318 00000KT 2SM BR BKN015 OVC025
     FM030200 00000KT 4SM -DZ BR OVC006
     FM030600 VRB03KT P6SM OVC006
     FM031200 VRB05KT P6SM OVC020=



000
FTUS41 KALY 022257 AAD
TAFALB
TAF AMD
KALB 022257Z 0223/0318 00000KT P6SM SCT027 BKN035 OVC260
     FM030200 VRB05KT P6SM OVC010
     FM031200 VRB05KT P6SM OVC020=



000
FTUS41 KALY 022257 AAB
TAFPOU
TAF AMD
KPOU 022257Z 0223/0318 25004KT P6SM SKC
     FM030100 18002KT P6SM OVC010
     FM030200 00000KT P6SM SCT009 OVC035
     FM031000 VRB03KT 3SM -RA BR BKN009 OVC035=



000
FTUS41 KALY 022217 AAD
TAFGFL
TAF AMD
KGFL 022217Z 0222/0318 00000KT P6SM SCT012 OVC023
     FM030200 00000KT 4SM -DZ BR OVC006
     FM030600 VRB03KT P6SM OVC006
     FM031200 VRB05KT P6SM OVC020=



000
FTUS41 KALY 022200 AAC
TAFALB
TAF AMD
KALB 022200Z 0222/0318 35003KT P6SM FEW005 SCT015 OVC025
     FM030200 VRB05KT P6SM OVC010
     FM031200 VRB05KT P6SM OVC020=



000
FTUS41 KALY 022200 AAC
TAFGFL
TAF AMD
KGFL 022200Z 0222/0318 08003KT P6SM BKN010 OVC023
     FM030200 00000KT 4SM -DZ BR OVC006
     FM030600 VRB03KT P6SM OVC006
     FM031200 VRB05KT P6SM OVC020=



000
FTUS41 KALY 022200 AAA
TAFPOU
TAF AMD
KPOU 022200Z 0222/0318 VRB04KT P6SM BKN020
     FM030100 18002KT P6SM OVC010
     FM030200 00000KT P6SM SCT009 OVC035
     FM031000 VRB03KT 3SM -RA BR BKN009 OVC035=



000
FTUS41 KALY 022138 AAB
TAFALB
TAF AMD
KALB 022138Z 0222/0318 00000KT P6SM FEW005 BKN011 OVC023
     FM030200 VRB05KT P6SM OVC010
     FM031200 VRB05KT P6SM OVC020=



000
FTUS41 KALY 022135 AAA
TAFALB
TAF AMD
KALB 022135Z 0222/0318 VRB03KT P6SM BKN007 BKN012 OVC019
     FM030200 VRB05KT P6SM OVC010
     FM031200 VRB05KT P6SM OVC020=



000
FTUS41 KALY 022059 AAB
TAFGFL
TAF AMD
KGFL 022059Z 0221/0318 06005KT P6SM SCT009 OVC019
      TEMPO 0221/0222 1SM -RA BR OVC009
     FM022200 02005KT P6SM -DZ OVC009
     FM030200 00000KT 4SM -DZ BR OVC006
     FM030600 VRB03KT P6SM OVC006
     FM031200 VRB05KT P6SM OVC020=



000
FTUS41 KALY 022059 AAB
TAFGFL
TAF AMD
KGFL 022059Z 0221/0318 06005KT P6SM SCT009 OVC019
      TEMPO 0221/0222 1SM -RA BR OVC009
     FM022200 02005KT P6SM -DZ OVC009
     FM030200 00000KT 4SM -DZ BR OVC006
     FM030600 VRB03KT P6SM OVC006
     FM031200 VRB05KT P6SM OVC020=



000
FTUS41 KALY 022045 AAA
TAFGFL
TAF AMD
KGFL 022045Z 0221/0318 06005KT P6SM BKN008 BKN014 OVC024
      TEMPO 0221/0222 1SM -RA BR OVC009
     FM022200 02005KT P6SM -DZ OVC009
     FM030200 00000KT 4SM -DZ BR OVC006
     FM030600 VRB03KT P6SM OVC006
     FM031200 VRB05KT P6SM OVC020=



000
FTUS41 KALY 022045 AAA
TAFGFL
TAF AMD
KGFL 022045Z 0221/0318 06005KT P6SM BKN008 BKN014 OVC024
      TEMPO 0221/0222 1SM -RA BR OVC009
     FM022200 02005KT P6SM -DZ OVC009
     FM030200 00000KT 4SM -DZ BR OVC006
     FM030600 VRB03KT P6SM OVC006
     FM031200 VRB05KT P6SM OVC020=



000
FTUS41 KALY 021740
TAFALB
TAF
KALB 021740Z 0218/0318 18006KT 5SM -RA BR BKN008 OVC015
      TEMPO 0218/0222 2SM -RADZ BR SCT008 OVC015
     FM022200 20005KT P6SM -DZ OVC010
     FM030200 VRB05KT P6SM OVC010
     FM031200 VRB05KT P6SM OVC020=



000
FTUS41 KALY 021740
TAFPOU
TAF
KPOU 021740Z 0218/0318 14003KT 6SM -DZ BR BKN008 OVC015
      TEMPO 0218/0222 2SM -DZ BR SCT008 OVC015
     FM030100 18002KT P6SM OVC010
     FM030200 00000KT P6SM SCT009 OVC035
     FM031000 VRB03KT 3SM -RA BR BKN009 OVC035=



000
FTUS41 KALY 021740
TAFGFL
TAF
KGFL 021740Z 0218/0318 VRB05KT 4SM -RA BR SCT009 OVC025
      TEMPO 0218/0222 1SM -RA BR OVC009
     FM022200 02005KT P6SM -DZ OVC009
     FM030200 00000KT 4SM -DZ BR OVC006
     FM030600 VRB03KT P6SM OVC006
     FM031200 VRB05KT P6SM OVC020=



000
FTUS41 KALY 021740
TAFGFL
TAF
KGFL 021740Z 0218/0318 VRB05KT 4SM -RA BR SCT009 OVC025
      TEMPO 0218/0222 1SM -RA BR OVC009
     FM022200 02005KT P6SM -DZ OVC009
     FM030200 00000KT 4SM -DZ BR OVC006
     FM030600 VRB03KT P6SM OVC006
     FM031200 VRB05KT P6SM OVC020=



000
FTUS41 KALY 021740
TAFPOU
TAF
KPOU 021740Z 0218/0318 14003KT 6SM -DZ BR BKN008 OVC015
      TEMPO 0218/0222 2SM -DZ BR SCT008 OVC015
     FM030100 18002KT P6SM OVC010
     FM030200 00000KT P6SM SCT009 OVC035
     FM031000 VRB03KT 3SM -RA BR BKN009 OVC035=



000
FTUS41 KALY 021740
TAFALB
TAF
KALB 021740Z 0218/0318 18006KT 5SM -RA BR BKN008 OVC015
      TEMPO 0218/0222 2SM -RADZ BR SCT008 OVC015
     FM022200 20005KT P6SM -DZ OVC010
     FM030200 VRB05KT P6SM OVC010
     FM031200 VRB05KT P6SM OVC020=



000
FTUS41 KALY 021652 AAA
TAFPOU
TAF AMD
KPOU 021652Z 0217/0312 VRB03KT P6SM BKN007 OVC015
      TEMPO 0217/0218 SCT007 OVC015
     FM021800 14003KT P6SM BKN007 OVC015
     FM030100 18002KT P6SM OVC010
     FM030600 00000KT 4SM -RA BR OVC007=



000
FTUS41 KALY 021401 AAA
TAFGFL
TAF AMD
KGFL 021401Z 0214/0312 VRB03KT 4SM -RA BR BKN004 OVC010
      TEMPO 0215/0217 1SM -RA BR SCT004 OVC015
     FM021700 09003KT 2SM -RA BR OVC006
     FM022000 02005KT P6SM -DZ OVC009
     FM030600 00000KT 4SM -DZ BR OVC006=



000
FTUS41 KALY 021344 AAA
TAFALB
TAF AMD
KALB 021344Z 0214/0312 17006KT 4SM -RA BR SCT007 OVC015
      TEMPO 0214/0218 1SM RA BR OVC007
     FM021800 18006KT 3SM -RA BR OVC007
     FM022000 20005KT P6SM -DZ OVC010=



000
FTUS41 KALY 021136
TAFPOU
TAF
KPOU 021136Z 0212/0312 03005KT P6SM BKN008 OVC015
      TEMPO 0212/0214 4SM -DZ BR SCT008 OVC015
     FM021400 VRB03KT 4SM -RA BR VCTS OVC007CB
      TEMPO 0214/0217 1SM RA BR SCT007 OVC015
     FM021700 14003KT 4SM -DZ BR OVC007
     FM030100 18002KT P6SM OVC010
     FM030600 00000KT 4SM -RA BR OVC007=



000
FTUS41 KALY 021136
TAFGFL
TAF
KGFL 021136Z 0212/0312 00000KT 4SM BR SCT004 OVC010
      TEMPO 0212/0214 1SM BR OVC004
     FM021500 VRB03KT 4SM -RA BR OVC007
      TEMPO 0215/0217 1SM -RA BR SCT007 OVC015
     FM021700 09003KT 2SM -RA BR OVC006
     FM022000 02005KT P6SM -DZ OVC009
     FM030600 00000KT 4SM -DZ BR OVC006=



000
FTUS41 KALY 021136
TAFALB
TAF
KALB 021136Z 0212/0312 17005KT P6SM BKN009 OVC015
      TEMPO 0212/0215 SCT009 OVC015
     FM021500 17006KT 4SM -RA BR OVC010
     FM021800 18006KT 3SM -RA BR OVC007
     FM022000 20005KT P6SM -DZ OVC010=



000
FTUS41 KALY 021059 AAF
TAFGFL
TAF AMD
KGFL 021059Z 0211/0306 10003KT 1SM BR OVC007
      TEMPO 0211/0214 5SM BR SCT006 OVC010
     FM021400 VRB03KT 3SM -RA BR OVC009
     FM021700 09003KT 2SM -RA BR OVC007
     FM022100 02005KT 4SM -DZ BR OVC009
     FM030400 35002KT P6SM OVC007=



000
FTUS41 KALY 021047 AAE
TAFGFL
TAF AMD
KGFL 021047Z 0211/0306 00000KT 1 1/2SM BR OVC007
      TEMPO 0211/0214 5SM BR SCT006 OVC010
     FM021400 VRB03KT 3SM -RA BR OVC009
     FM021700 09003KT 2SM -RA BR OVC007
     FM022100 02005KT 4SM -DZ BR OVC009
     FM030400 35002KT P6SM OVC007=



000
FTUS41 KALY 021047 AAE
TAFGFL
TAF AMD
KGFL 021047Z 0211/0306 00000KT 1 1/2SM BR OVC007
      TEMPO 0211/0214 5SM BR SCT006 OVC010
     FM021400 VRB03KT 3SM -RA BR OVC009
     FM021700 09003KT 2SM -RA BR OVC007
     FM022100 02005KT 4SM -DZ BR OVC009
     FM030400 35002KT P6SM OVC007=



000
FTUS41 KALY 021046 AAB
TAFALB
TAF AMD
KALB 021046Z 0211/0306 17004KT P6SM OVC010
     FM021400 15006KT 4SM -RA BR OVC009
     FM021700 14005KT 3SM -RA BR OVC007
     FM022100 19005KT P6SM -DZ OVC010=



000
FTUS41 KALY 021046 AAB
TAFALB
TAF AMD
KALB 021046Z 0211/0306 17004KT P6SM OVC010
     FM021400 15006KT 4SM -RA BR OVC009
     FM021700 14005KT 3SM -RA BR OVC007
     FM022100 19005KT P6SM -DZ OVC010=



000
FTUS41 KALY 021001 AAD
TAFGFL
TAF AMD
KGFL 021001Z 0210/0306 07003KT 2SM BR OVC004
      TEMPO 0210/0214 5SM BR SCT006 OVC010
     FM021400 VRB03KT 3SM -RA BR OVC009
     FM021700 09003KT 2SM -RA BR OVC007
     FM022100 02005KT 4SM -DZ BR OVC009
     FM030400 35002KT P6SM OVC007=



000
FTUS41 KALY 021000 AAA
TAFALB
TAF AMD
KALB 021000Z 0210/0306 17006KT P6SM OVC009
     FM021400 15006KT 4SM -RA BR OVC010
     FM021700 14005KT 3SM -RA BR OVC007
     FM022100 19005KT P6SM -DZ OVC010=



000
FTUS41 KALY 020939 AAC
TAFPOU
TAF AMD
KPOU 020939Z 0210/0306 03005KT P6SM FEW005 OVC012
      TEMPO 0210/0213 6SM -DZ BR OVC005
     FM021300 VRB03KT 2SM -RA BR OVC007
     FM021600 14003KT 4SM -DZ BR OVC007
     FM030100 18002KT P6SM OVC010=



000
FTUS41 KALY 020937 AAC
TAFGFL
TAF AMD
KGFL 020937Z 0210/0306 00000KT 3SM -DZ BR OVC005
      TEMPO 0210/0214 5SM BR SCT006 OVC010
     FM021400 VRB03KT 3SM -RA BR OVC009
     FM021700 09003KT 2SM -RA BR OVC007
     FM022100 02005KT 4SM -DZ BR OVC009
     FM030400 35002KT P6SM OVC007=



000
FTUS41 KALY 020937 CCB
TAFGFL
TAF COR
KGFL 020937Z 0210/0306 00000KT 2SM -DZ BR OVC006
      TEMPO 0210/0214 5SM BR SCT006 OVC010
     FM021400 VRB03KT 3SM -RA BR OVC009
     FM021700 09003KT 2SM -RA BR OVC007
     FM022100 02005KT 4SM -DZ BR OVC009
     FM030400 35002KT P6SM OVC007=



000
FTUS41 KALY 020903 AAB
TAFPOU
TAF AMD
KPOU 020903Z 0209/0306 00000KT P6SM FEW005 OVC009
      TEMPO 0209/0213 6SM -DZ BR OVC005
     FM021300 VRB03KT 2SM -RA BR OVC007
     FM021600 14003KT 4SM -DZ BR OVC007
     FM030100 18002KT P6SM OVC010
     FM030500 00000KT 5SM -RA BR OVC007=



000
FTUS41 KALY 020902 AAB
TAFGFL
TAF AMD
KGFL 020902Z 0209/0306 00000KT 2SM -DZ BR OVC006
      TEMPO 0210/0214 3SM -DZ BR SCT006 OVC010
     FM021400 VRB03KT 3SM -RA BR OVC010
     FM021700 09003KT 2SM -RA BR OVC007
     FM022100 02005KT P6SM -DZ OVC015=



000
FTUS41 KALY 020902 AAB
TAFGFL
TAF AMD
KGFL 020902Z 0209/0306 00000KT 2SM -DZ BR OVC006
      TEMPO 0210/0214 3SM -DZ BR SCT006 OVC010
     FM021400 VRB03KT 3SM -RA BR OVC010
     FM021700 09003KT 2SM -RA BR OVC007
     FM022100 02005KT P6SM -DZ OVC015=



000
FTUS41 KALY 020709 AAA
TAFPOU
TAF AMD
KPOU 020709Z 0207/0306 03003KT P6SM -DZ BKN005 OVC011
      TEMPO 0207/0211 SCT005 OVC010
     FM021300 VRB03KT 2SM -RA BR OVC007
     FM021600 14003KT 4SM -DZ BR OVC007
     FM030100 18002KT P6SM OVC010
     FM030500 00000KT 5SM -RA BR OVC007=



000
FTUS41 KALY 020708 AAA
TAFGFL
TAF AMD
KGFL 020708Z 0207/0306 00000KT 5SM -DZ BR SCT006 OVC010
      TEMPO 0207/0211 3SM -DZ BR OVC006
     FM021400 VRB03KT 3SM -RA BR OVC010
     FM021700 09003KT 2SM -RA BR OVC007
     FM022100 02005KT P6SM -DZ OVC015=



000
FTUS41 KALY 020557 CCA
TAFGFL
TAF COR
KGFL 020557Z 0206/0306 00000KT 5SM -DZ BR OVC017
      TEMPO 0209/0213 3SM -DZ BR OVC009
     FM021400 VRB03KT 3SM -RA BR OVC010
     FM021700 09003KT 2SM -RA BR OVC007
     FM022100 02005KT P6SM -DZ OVC015=



000
FTUS41 KALY 020557 CCA
TAFGFL
TAF COR
KGFL 020557Z 0206/0306 00000KT 5SM -DZ BR OVC017
      TEMPO 0209/0213 3SM -DZ BR OVC009
     FM021400 VRB03KT 3SM -RA BR OVC010
     FM021700 09003KT 2SM -RA BR OVC007
     FM022100 02005KT P6SM -DZ OVC015=



000
FTUS41 KALY 020536
TAFALB
TAF
KALB 020536Z 0206/0306 VRB03KT P6SM -DZ OVC014
     FM021400 15006KT 4SM -RA BR OVC010
     FM021700 14005KT 3SM -RA BR OVC007
     FM022100 19005KT P6SM -DZ OVC010=



000
FTUS41 KALY 020536
TAFGFL
TAF
KGFL 020536Z 0206/0306 00000KT P6SM -DZ OVC015
      TEMPO 0209/0213 5SM -DZ BR OVC009
     FM021400 VRB03KT 3SM -RA BR OVC010
     FM021700 09003KT 2SM -RA BR OVC007
     FM022100 02005KT P6SM -DZ OVC015=



000
FTUS41 KALY 020536
TAFPOU
TAF
KPOU 020536Z 0206/0306 00000KT P6SM -DZ OVC011
     FM021300 VRB03KT 2SM -RA BR OVC007
     FM021600 14003KT 4SM -DZ BR OVC007
     FM030100 18002KT P6SM OVC010
     FM030500 00000KT 5SM -RA BR OVC007=



000
FTUS41 KALY 020335 AAI
TAFGFL
TAF AMD
KGFL 020335Z 0204/0224 19003KT P6SM VCSH OVC022
      TEMPO 0204/0206 2SM -DZ BR OVC007
     FM020600 14004KT P6SM OVC020
     FM021200 VRB03KT 3SM -RA BR OVC015
     FM022100 02005KT P6SM VCSH OVC015=



000
FTUS41 KALY 012342 AAC
TAFALB
TAF AMD
KALB 012342Z 0200/0224 15007KT P6SM VCSH OVC020
      TEMPO 0200/0203 3SM -DZ BR OVC009
     FM020300 15006KT P6SM VCSH OVC010
      TEMPO 0203/0206 2SM -DZ OVC005
     FM020600 15005KT P6SM VCSH OVC010
     FM021200 15005KT 5SM -RA BR OVC010
     FM022000 19005KT P6SM VCSH OVC025
     FM022300 27006KT P6SM BKN020=



000
FTUS41 KALY 012342 AAF
TAFPOU
TAF AMD
KPOU 012342Z 0200/0224 12005KT P6SM VCSH OVC010
      TEMPO 0200/0203 3SM -DZ BR OVC005
     FM020300 10004KT P6SM VCSH OVC010
      TEMPO 0203/0206 2SM -DZ BR OVC003
     FM020600 VRB03KT 3SM BR OVC009
     FM021200 VRB03KT 3SM -SHRA BR OVC010
     FM022200 25005KT P6SM OVC020=



000
FTUS41 KALY 012342 AAH
TAFGFL
TAF AMD
KGFL 012342Z 0200/0224 17005KT P6SM VCSH OVC025
      TEMPO 0200/0203 3SM -DZ BR OVC015
     FM020300 15004KT P6SM VCSH OVC017
      TEMPO 0203/0206 2SM -DZ BR OVC007
     FM020600 14004KT P6SM OVC020
     FM021200 VRB03KT 3SM -RA BR OVC015
     FM022100 02005KT P6SM VCSH OVC015=



000
FTUS41 KALY 012201 AAE
TAFPOU
TAF AMD
KPOU 012201Z 0122/0218 12005KT P6SM VCSH SCT009 OVC015
      TEMPO 0122/0124 5SM -RA BR OVC009
     FM020000 08005KT 4SM -DZ BR BKN007 OVC020
     FM020600 12005KT 6SM BR OVC020
     FM021400 16006KT 4SM -RA OVC015=



000
FTUS41 KALY 012159 AAG
TAFGFL
TAF AMD
KGFL 012159Z 0122/0218 22005KT 5SM BR SCT006 OVC012
      TEMPO 0122/0124 2SM -DZ BR BKN006 OVC012
     FM020000 16007KT 5SM -DZ BR BKN007 OVC020
     FM020600 14005KT 6SM -DZ BR OVC020
     FM021400 12006KT 3SM -RA BR BKN008 OVC020=



    US Dept of Commerce
    National Oceanic and Atmospheric Administration
    National Weather Service
    1325 East West Highway
    Silver Spring, MD 20910
    Page Author: NWS Internet Services Team
Disclaimer
Information Quality
Credits
Glossary
Privacy Policy
Freedom of Information Act (FOIA)
About Us
Career Opportunities